createdAt,value
2018-09-04T00:01:33.384Z,42.83
2018-09-04T00:04:02.226Z,41.80
2018-09-04T00:06:31.103Z,47.63
2018-09-04T00:08:59.980Z,49.53
2018-09-04T00:11:28.871Z,50.60
2018-09-04T00:13:57.716Z,46.40
2018-09-04T00:16:26.573Z,50.93
2018-09-04T00:18:55.442Z,45.53
2018-09-04T00:21:24.293Z,44.93
2018-09-04T00:23:53.161Z,42.00
2018-09-04T00:26:22.094Z,51.87
2018-09-04T00:28:50.937Z,46.40
2018-09-04T00:31:19.794Z,44.77
2018-09-04T00:33:48.673Z,43.80
2018-09-04T00:36:17.562Z,43.50
2018-09-04T00:38:46.406Z,48.07
2018-09-04T00:41:15.243Z,51.10
2018-09-04T00:43:44.145Z,49.20
2018-09-04T00:46:13.002Z,49.87
2018-09-04T00:48:41.831Z,53.00
2018-09-04T00:51:10.687Z,50.23
2018-09-04T00:53:39.517Z,52.60
2018-09-04T00:56:08.395Z,45.87
2018-09-04T00:58:37.268Z,57.38
2018-09-04T01:01:06.111Z,53.70
2018-09-04T01:03:34.966Z,55.70
2018-09-04T01:06:03.845Z,50.70
2018-09-04T01:08:32.715Z,55.70
2018-09-04T01:11:01.627Z,50.30
2018-09-04T01:13:30.480Z,52.37
2018-09-04T01:15:59.339Z,54.17
2018-09-04T01:18:28.230Z,48.47
2018-09-04T01:20:57.076Z,53.13
2018-09-04T01:23:25.982Z,45.97
2018-09-04T01:25:54.814Z,49.27
2018-09-04T01:28:23.686Z,48.10
2018-09-04T01:30:52.536Z,52.27
2018-09-04T01:33:21.399Z,49.85
2018-09-04T01:35:50.286Z,47.03
2018-09-04T01:38:19.145Z,45.87
2018-09-04T01:40:48.039Z,52.23
2018-09-04T01:43:16.902Z,53.70
2018-09-04T01:45:45.769Z,51.00
2018-09-04T01:48:15.172Z,47.93
2018-09-04T01:50:44.593Z,46.70
2018-09-04T01:53:13.701Z,40.63
2018-09-04T01:55:42.565Z,48.83
2018-09-04T01:58:11.423Z,45.00
2018-09-04T02:00:40.268Z,50.77
2018-09-04T02:03:09.141Z,50.67
2018-09-04T02:05:37.994Z,46.83
2018-09-04T02:08:06.897Z,49.77
2018-09-04T02:10:35.760Z,51.87
2018-09-04T02:13:04.661Z,46.30
2018-09-04T02:15:33.538Z,47.60
2018-09-04T02:18:02.375Z,50.03
2018-09-04T02:20:31.247Z,50.90
2018-09-04T02:23:00.108Z,53.67
2018-09-04T02:25:29.114Z,51.63
2018-09-04T02:27:58.006Z,54.65
2018-09-04T02:30:26.877Z,48.17
2018-09-04T02:32:55.794Z,47.40
2018-09-04T02:35:24.574Z,56.20
2018-09-04T02:37:53.412Z,46.23
2018-09-04T02:40:22.267Z,50.10
2018-09-04T02:42:51.128Z,48.23
2018-09-04T02:45:19.956Z,48.50
2018-09-04T02:47:48.877Z,48.13
2018-09-04T02:50:17.727Z,47.73
2018-09-04T02:52:46.594Z,47.47
2018-09-04T02:55:15.425Z,49.93
2018-09-04T02:57:44.376Z,52.00
2018-09-04T03:00:13.238Z,45.40
2018-09-04T03:02:42.088Z,51.30
2018-09-04T03:05:10.969Z,47.93
2018-09-04T03:07:39.840Z,44.57
2018-09-04T03:10:08.826Z,47.73
2018-09-04T03:12:37.766Z,47.53
2018-09-04T03:15:06.670Z,52.30
2018-09-04T03:17:35.513Z,49.53
2018-09-04T03:20:04.498Z,48.08
2018-09-04T03:22:33.337Z,52.75
2018-09-04T03:25:02.219Z,56.33
2018-09-04T03:27:31.083Z,51.30
2018-09-04T03:29:59.932Z,49.77
2018-09-04T03:32:28.775Z,44.43
2018-09-04T03:34:57.654Z,45.73
2018-09-04T03:37:26.517Z,44.50
2018-09-04T03:39:55.333Z,43.03
2018-09-04T03:42:24.296Z,45.73
2018-09-04T03:44:53.056Z,43.23
2018-09-04T03:47:21.901Z,42.10
2018-09-04T03:49:50.789Z,41.77
2018-09-04T03:52:19.678Z,43.47
2018-09-04T03:54:48.480Z,47.13
2018-09-04T03:57:17.354Z,41.80
2018-09-04T03:59:46.200Z,42.23
2018-09-04T04:02:15.084Z,39.17
2018-09-04T04:04:43.931Z,40.00
2018-09-04T04:07:12.816Z,37.50
2018-09-04T04:09:41.658Z,40.43
2018-09-04T04:12:10.639Z,40.80
2018-09-04T04:14:39.340Z,46.40
2018-09-04T04:17:08.445Z,43.97
2018-09-04T04:19:37.272Z,43.27
2018-09-04T04:22:06.262Z,40.90
2018-09-04T04:24:35.187Z,41.33
2018-09-04T04:27:04.034Z,40.27
2018-09-04T04:29:33.095Z,44.83
2018-09-04T04:32:01.923Z,34.77
2018-09-04T04:34:30.785Z,33.13
2018-09-04T04:36:59.622Z,31.77
2018-09-04T04:39:28.497Z,32.33
2018-09-04T04:41:57.559Z,36.00
2018-09-04T04:44:26.634Z,32.00
2018-09-04T04:46:55.467Z,35.13
2018-09-04T04:49:24.494Z,30.80
2018-09-04T04:51:53.281Z,34.57
2018-09-04T04:54:22.152Z,35.40
2018-09-04T04:56:51.033Z,33.00
2018-09-04T04:59:19.915Z,32.57
2018-09-04T05:01:48.800Z,31.77
2018-09-04T05:04:17.674Z,32.33
2018-09-04T05:06:46.506Z,32.33
2018-09-04T05:09:15.408Z,33.07
2018-09-04T05:11:44.269Z,31.60
2018-09-04T05:14:13.188Z,32.53
2018-09-04T05:16:42.045Z,34.90
2018-09-04T05:19:10.900Z,30.80
2018-09-04T05:21:39.785Z,33.67
2018-09-04T05:24:08.660Z,30.23
2018-09-04T05:26:37.497Z,29.50
2018-09-04T05:29:06.371Z,28.83
2018-09-04T05:31:39.884Z,30.67
2018-09-04T05:34:08.806Z,30.90
2018-09-04T05:36:37.694Z,30.80
2018-09-04T05:39:08.833Z,29.40
2018-09-04T05:41:37.685Z,27.83
2018-09-04T05:44:06.547Z,32.15
2018-09-04T05:46:38.116Z,33.73
2018-09-04T05:49:07.464Z,28.27
2018-09-04T05:51:36.359Z,31.27
2018-09-04T05:54:05.208Z,26.97
2018-09-04T05:56:34.062Z,29.07
2018-09-04T05:59:02.893Z,28.30
2018-09-04T06:01:32.017Z,30.73
2018-09-04T06:04:00.883Z,30.20
2018-09-04T06:06:29.734Z,33.07
2018-09-04T06:08:58.573Z,38.00
2018-09-04T06:11:27.425Z,40.48
2018-09-04T06:13:56.274Z,43.93
2018-09-04T06:16:25.129Z,41.13
2018-09-04T06:18:53.987Z,48.40
2018-09-04T06:21:22.826Z,42.23
2018-09-04T06:23:51.671Z,40.00
2018-09-04T06:26:20.529Z,39.92
2018-09-04T06:28:49.372Z,39.65
2018-09-04T06:31:18.216Z,38.83
2018-09-04T06:33:47.123Z,38.38
2018-09-04T06:36:15.975Z,35.68
2018-09-04T06:38:44.837Z,36.30
2018-09-04T06:41:13.683Z,35.95
2018-09-04T06:43:42.943Z,37.05
2018-09-04T06:46:11.795Z,35.55
2018-09-04T06:48:40.795Z,40.17
2018-09-04T06:51:09.701Z,35.55
2018-09-04T06:53:38.566Z,35.92
2018-09-04T06:56:07.483Z,34.48
2018-09-04T06:58:36.297Z,33.73
2018-09-04T07:01:05.264Z,34.80
2018-09-04T07:03:34.144Z,32.83
2018-09-04T07:06:03.071Z,33.92
2018-09-04T07:08:32.035Z,35.90
2018-09-04T07:11:00.905Z,37.00
2018-09-04T07:13:29.771Z,35.73
2018-09-04T07:15:58.622Z,34.23
2018-09-04T07:18:28.310Z,33.88
2018-09-04T07:20:57.183Z,33.28
2018-09-04T07:23:26.321Z,34.08
2018-09-04T07:25:55.165Z,33.10
2018-09-04T07:28:24.090Z,30.92
2018-09-04T07:30:52.950Z,34.90
2018-09-04T07:33:21.839Z,30.62
2018-09-04T07:35:50.739Z,28.00
2018-09-04T07:38:19.802Z,26.75
2018-09-04T07:40:48.552Z,26.85
2018-09-04T07:43:17.421Z,26.85
2018-09-04T07:45:46.276Z,25.50
2018-09-04T07:48:15.171Z,23.95
2018-09-04T07:50:44.085Z,28.15
2018-09-04T07:53:12.985Z,27.60
2018-09-04T07:55:41.846Z,24.82
2018-09-04T07:58:10.724Z,24.70
2018-09-04T08:00:39.613Z,25.27
2018-09-04T08:03:08.571Z,23.35
2018-09-04T08:05:37.716Z,23.05
2018-09-04T08:08:06.644Z,24.18
2018-09-04T08:10:36.224Z,23.02
2018-09-04T08:13:06.613Z,21.37
2018-09-04T08:15:36.036Z,24.67
2018-09-04T08:18:05.072Z,23.70
2018-09-04T08:20:34.143Z,22.35
2018-09-04T08:23:02.830Z,22.82
2018-09-04T08:25:31.833Z,21.82
2018-09-04T08:28:00.713Z,23.47
2018-09-04T08:30:29.584Z,23.52
2018-09-04T08:32:58.589Z,22.10
2018-09-04T08:35:27.307Z,21.82
2018-09-04T08:37:59.343Z,19.65
2018-09-04T08:40:29.629Z,20.40
2018-09-04T08:42:58.545Z,18.98
2018-09-04T08:45:27.432Z,20.35
2018-09-04T08:47:59.190Z,17.77
2018-09-04T08:50:28.657Z,18.82
2018-09-04T08:52:57.512Z,19.20
2018-09-04T08:55:26.494Z,18.98
2018-09-04T08:57:55.270Z,19.17
2018-09-04T09:00:24.159Z,18.12
2018-09-04T09:02:53.017Z,17.50
2018-09-04T09:05:21.888Z,17.77
2018-09-04T09:07:50.733Z,17.27
2018-09-04T09:10:19.615Z,17.35
2018-09-04T09:12:48.517Z,16.95
2018-09-04T09:15:17.346Z,16.73
2018-09-04T09:17:46.199Z,15.15
2018-09-04T09:20:15.089Z,16.12
2018-09-04T09:22:44.294Z,16.70
2018-09-04T09:25:13.174Z,16.85
2018-09-04T09:27:42.144Z,16.05
2018-09-04T09:30:11.473Z,17.90
2018-09-04T09:32:40.474Z,16.67
2018-09-04T09:35:09.508Z,16.87
2018-09-04T09:37:38.356Z,15.28
2018-09-04T09:40:07.238Z,15.43
2018-09-04T09:42:36.254Z,15.53
2018-09-04T09:45:05.501Z,16.15
2018-09-04T09:47:34.362Z,15.63
2018-09-04T09:50:03.224Z,15.68
2018-09-04T09:52:32.158Z,15.80
2018-09-04T09:55:00.944Z,16.10
2018-09-04T09:57:29.807Z,16.35
2018-09-04T09:59:58.725Z,15.80
2018-09-04T10:02:45.233Z,16.27
2018-09-04T10:05:14.075Z,15.88
2018-09-04T10:07:43.019Z,16.17
2018-09-04T10:10:11.879Z,14.73
2018-09-04T10:12:40.661Z,14.95
2018-09-04T10:15:09.517Z,15.75
2018-09-04T10:17:38.383Z,15.45
2018-09-04T10:20:07.219Z,17.15
2018-09-04T10:22:36.088Z,15.63
2018-09-04T10:25:05.461Z,15.10
2018-09-04T10:27:34.595Z,15.30
2018-09-04T10:30:03.638Z,14.68
2018-09-04T10:32:32.560Z,17.37
2018-09-04T10:35:01.543Z,15.45
2018-09-04T10:37:30.495Z,15.83
2018-09-04T10:40:17.444Z,15.20
2018-09-04T10:42:46.326Z,14.83
2018-09-04T10:45:32.846Z,14.85
2018-09-04T10:48:01.708Z,15.55
2018-09-04T10:50:30.568Z,14.75
2018-09-04T10:52:59.422Z,14.58
2018-09-04T10:55:28.312Z,13.78
2018-09-04T10:57:57.258Z,14.33
2018-09-04T11:00:26.102Z,15.40
2018-09-04T11:02:54.962Z,15.13
2018-09-04T11:05:23.831Z,14.90
2018-09-04T11:07:52.709Z,15.05
2018-09-04T11:10:21.562Z,16.40
2018-09-04T11:12:50.479Z,15.88
2018-09-04T11:15:19.357Z,17.40
2018-09-04T11:17:48.204Z,15.53
2018-09-04T11:20:17.069Z,15.40
2018-09-04T11:22:45.937Z,15.30
2018-09-04T11:25:14.894Z,14.73
2018-09-04T11:27:43.812Z,15.83
2018-09-04T11:30:16.199Z,17.12
2018-09-04T11:32:45.150Z,16.80
2018-09-04T11:35:14.112Z,15.60
2018-09-04T11:37:43.234Z,15.63
2018-09-04T11:40:12.114Z,18.82
2018-09-04T11:42:41.201Z,16.25
2018-09-04T11:45:10.551Z,17.32
2018-09-04T11:47:41.579Z,16.32
2018-09-04T11:50:10.865Z,16.75
2018-09-04T11:52:42.534Z,16.20
2018-09-04T11:55:11.909Z,16.27
2018-09-04T11:57:41.400Z,16.37
2018-09-04T12:00:15.919Z,17.00
2018-09-04T12:02:45.303Z,17.00
2018-09-04T12:05:14.287Z,16.55
2018-09-04T12:07:43.145Z,16.23
2018-09-04T12:10:12.009Z,16.27
2018-09-04T12:12:41.159Z,16.90
2018-09-04T12:15:09.841Z,17.05
2018-09-04T12:17:38.732Z,18.12
2018-09-04T12:20:34.984Z,19.10
2018-09-04T12:23:03.809Z,17.80
2018-09-04T12:25:32.664Z,18.73
2018-09-04T12:28:02.733Z,17.98
2018-09-04T12:30:31.685Z,17.15
2018-09-04T12:33:01.287Z,17.95
2018-09-04T12:35:30.611Z,17.92
2018-09-04T12:37:59.709Z,17.42
2018-09-04T12:40:28.569Z,17.10
2018-09-04T12:42:57.419Z,17.90
2018-09-04T12:45:26.250Z,19.90
2018-09-04T12:47:55.169Z,19.73
2018-09-04T12:50:23.998Z,21.25
2018-09-04T12:52:52.819Z,20.70
2018-09-04T12:55:21.724Z,21.68
2018-09-04T12:57:50.615Z,18.70
2018-09-04T13:00:19.543Z,17.40
2018-09-04T13:02:48.409Z,15.85
2018-09-04T13:05:17.629Z,16.23
2018-09-04T13:07:46.498Z,15.83
2018-09-04T13:10:15.583Z,16.05
2018-09-04T13:12:44.471Z,17.15
2018-09-04T13:15:13.926Z,15.68
2018-09-04T13:17:42.767Z,15.70
2018-09-04T13:20:11.639Z,15.88
2018-09-04T13:22:40.473Z,15.80
2018-09-04T13:25:09.330Z,18.77
2018-09-04T13:27:38.170Z,19.42
2018-09-04T13:30:07.040Z,20.17
2018-09-04T13:32:35.952Z,19.60
2018-09-04T13:35:04.928Z,22.10
2018-09-04T13:37:33.796Z,20.20
2018-09-04T13:40:03.457Z,19.80
2018-09-04T13:42:33.445Z,20.35
2018-09-04T13:45:02.358Z,18.42
2018-09-04T13:47:32.776Z,18.87
2018-09-04T13:50:01.614Z,18.65
2018-09-04T13:52:31.481Z,19.23
2018-09-04T13:55:00.304Z,19.12
2018-09-04T13:57:29.685Z,18.65
2018-09-04T13:59:58.596Z,20.73
2018-09-04T14:02:27.461Z,18.77
2018-09-04T14:04:56.307Z,17.87
2018-09-04T14:07:25.193Z,18.45
2018-09-04T14:09:54.072Z,19.12
2018-09-04T14:12:22.891Z,19.80
2018-09-04T14:14:51.755Z,20.32
2018-09-04T14:17:21.122Z,18.42
2018-09-04T14:19:49.950Z,19.25
2018-09-04T14:22:18.867Z,19.82
2018-09-04T14:24:47.664Z,18.42
2018-09-04T14:27:16.519Z,19.35
2018-09-04T14:32:14.242Z,18.65
2018-09-04T14:34:43.072Z,18.92
2018-09-04T14:37:12.081Z,18.50
2018-09-04T14:39:40.800Z,16.93
2018-09-04T14:42:09.748Z,15.98
2018-09-04T14:44:38.559Z,14.15
2018-09-04T14:47:07.414Z,14.63
2018-09-04T14:49:36.290Z,13.53
2018-09-04T14:52:05.223Z,14.75
2018-09-04T14:54:34.106Z,12.60
2018-09-04T14:57:03.039Z,13.53
2018-09-04T14:59:31.846Z,12.47
2018-09-04T15:02:00.726Z,13.32
2018-09-04T15:04:29.575Z,13.30
2018-09-04T15:06:58.414Z,11.97
2018-09-04T15:09:27.254Z,12.15
2018-09-04T15:11:56.181Z,12.40
2018-09-04T15:14:25.028Z,12.10
2018-09-04T15:16:55.458Z,13.78
2018-09-04T15:19:24.372Z,13.08
2018-09-04T15:21:53.310Z,14.30
2018-09-04T15:24:22.159Z,13.13
2018-09-04T15:26:51.089Z,12.37
2018-09-04T15:29:19.964Z,12.30
2018-09-04T15:31:48.821Z,14.13
2018-09-04T15:34:17.669Z,13.00
2018-09-04T15:36:46.521Z,13.08
2018-09-04T15:39:15.370Z,14.65
2018-09-04T15:41:44.206Z,12.80
2018-09-04T15:44:13.096Z,13.43
2018-09-04T15:46:41.944Z,12.88
2018-09-04T15:49:28.358Z,13.13
2018-09-04T15:51:57.155Z,13.43
2018-09-04T15:54:26.022Z,13.78
2018-09-04T15:56:54.917Z,13.78
2018-09-04T15:59:23.672Z,13.22
2018-09-04T16:01:52.537Z,13.38
2018-09-04T16:04:21.365Z,15.05
2018-09-04T16:06:50.236Z,14.60
2018-09-04T16:09:19.041Z,13.83
2018-09-04T16:11:47.910Z,14.47
2018-09-04T16:14:16.796Z,16.40
2018-09-04T16:16:45.673Z,15.70
2018-09-04T16:19:14.531Z,15.15
2018-09-04T16:21:43.437Z,16.07
2018-09-04T16:24:12.271Z,14.98
2018-09-04T16:26:41.224Z,15.63
2018-09-04T16:29:10.061Z,15.88
2018-09-04T16:31:39.046Z,16.27
2018-09-04T16:34:07.934Z,16.32
2018-09-04T16:36:36.790Z,17.20
2018-09-04T16:39:06.071Z,16.70
2018-09-04T16:41:34.956Z,16.82
2018-09-04T16:44:04.264Z,16.62
2018-09-04T16:46:33.139Z,16.73
2018-09-04T16:49:02.018Z,17.15
2018-09-04T16:51:30.921Z,17.07
2018-09-04T16:53:59.779Z,16.00
2018-09-04T16:56:28.697Z,18.25
2018-09-04T16:58:57.647Z,17.70
2018-09-04T17:01:26.493Z,18.52
2018-09-04T17:03:55.413Z,17.77
2018-09-04T17:06:24.264Z,18.17
2018-09-04T17:08:53.153Z,17.50
2018-09-04T17:11:22.004Z,18.87
2018-09-04T17:13:50.877Z,18.62
2018-09-04T17:16:19.755Z,18.62
2018-09-04T17:18:48.639Z,18.45
2018-09-04T17:21:17.501Z,18.70
2018-09-04T17:23:46.369Z,19.67
2018-09-04T17:26:15.216Z,21.17
2018-09-04T17:28:44.053Z,19.98
2018-09-04T17:31:12.991Z,19.92
2018-09-04T17:33:41.853Z,20.57
2018-09-04T17:36:10.759Z,19.20
2018-09-04T17:38:39.676Z,19.57
2018-09-04T17:41:08.534Z,19.27
2018-09-04T17:43:37.407Z,19.85
2018-09-04T17:46:06.687Z,18.52
2018-09-04T17:48:35.630Z,18.82
2018-09-04T17:51:04.521Z,19.52
2018-09-04T17:53:33.433Z,19.12
2018-09-04T17:56:02.397Z,18.67
2018-09-04T17:58:31.258Z,20.50
2018-09-04T18:01:00.132Z,18.05
2018-09-04T18:03:29.021Z,18.32
2018-09-04T18:05:57.854Z,18.35
2018-09-04T18:08:26.744Z,19.92
2018-09-04T18:10:55.622Z,19.67
2018-09-04T18:13:24.461Z,19.45
2018-09-04T18:15:53.320Z,19.15
2018-09-04T18:18:22.151Z,19.82
2018-09-04T18:20:51.036Z,19.05
2018-09-04T18:23:19.915Z,22.10
2018-09-04T18:25:49.067Z,20.43
2018-09-04T18:28:17.929Z,21.17
2018-09-04T18:30:46.987Z,20.90
2018-09-04T18:33:15.826Z,20.27
2018-09-04T18:35:44.676Z,22.07
2018-09-04T18:38:13.550Z,21.87
2018-09-04T18:40:42.780Z,21.23
2018-09-04T18:43:11.823Z,22.13
2018-09-04T18:45:56.941Z,21.90
2018-09-04T18:48:26.424Z,23.10
2018-09-04T18:50:55.303Z,25.30
2018-09-04T18:53:24.159Z,25.12
2018-09-04T18:55:53.043Z,24.30
2018-09-04T18:58:21.980Z,24.70
2018-09-04T19:00:50.849Z,22.48
2018-09-04T19:03:19.736Z,22.85
2018-09-04T19:05:48.627Z,26.40
2018-09-04T19:08:17.536Z,23.10
2018-09-04T19:10:46.393Z,21.20
2018-09-04T19:13:15.245Z,24.98
2018-09-04T19:15:44.096Z,22.42
2018-09-04T19:18:13.107Z,23.07
2018-09-04T19:20:42.357Z,22.37
2018-09-04T19:23:11.759Z,22.32
2018-09-04T19:25:42.478Z,23.62
2018-09-04T19:28:11.377Z,23.50
2018-09-04T19:30:40.210Z,26.55
2018-09-04T19:33:09.118Z,22.13
2018-09-04T19:35:38.007Z,27.20
2018-09-04T19:38:06.878Z,24.45
2018-09-04T19:40:35.711Z,23.90
2018-09-04T19:43:04.548Z,22.82
2018-09-04T19:45:33.503Z,24.87
2018-09-04T19:48:02.341Z,27.77
2018-09-04T19:50:31.232Z,24.57
2018-09-04T19:53:00.137Z,24.05
2018-09-04T19:55:29.091Z,25.50
2018-09-04T19:57:57.886Z,23.22
2018-09-04T20:00:26.742Z,22.37
2018-09-04T20:02:55.661Z,24.72
2018-09-04T20:05:24.451Z,23.73
2018-09-04T20:07:53.285Z,23.42
2018-09-04T20:10:22.253Z,26.85
2018-09-04T20:12:51.143Z,24.10
2018-09-04T20:15:20.132Z,23.47
2018-09-04T20:17:49.183Z,22.75
2018-09-04T20:20:18.103Z,23.90
2018-09-04T20:22:47.041Z,22.55
2018-09-04T20:25:15.951Z,21.95
2018-09-04T20:27:44.896Z,22.62
2018-09-04T20:30:13.696Z,21.97
2018-09-04T20:32:42.572Z,22.50
2018-09-04T20:35:11.467Z,21.95
2018-09-04T20:37:40.328Z,22.80
2018-09-04T20:40:09.189Z,26.20
2018-09-04T20:42:38.049Z,23.50
2018-09-04T20:45:07.060Z,21.97
2018-09-04T20:47:35.904Z,25.55
2018-09-04T20:50:04.762Z,20.62
2018-09-04T20:52:33.605Z,21.57
2018-09-04T20:55:02.490Z,20.27
2018-09-04T20:57:34.423Z,22.07
2018-09-04T21:00:39.611Z,23.18
2018-09-04T21:03:44.784Z,29.52
2018-09-04T21:06:45.365Z,22.53
2018-09-04T21:10:00.937Z,21.97
2018-09-04T21:12:29.831Z,24.10
2018-09-04T21:14:58.728Z,30.17
2018-09-04T21:17:27.602Z,24.23
2018-09-04T21:19:56.476Z,27.17
2018-09-04T21:22:25.318Z,28.15
2018-09-04T21:24:54.209Z,30.57
2018-09-04T21:27:23.026Z,23.95
2018-09-04T21:29:51.868Z,24.17
2018-09-04T21:32:20.722Z,23.47
2018-09-04T21:34:49.542Z,25.02
2018-09-04T21:37:18.405Z,25.97
2018-09-04T21:39:47.263Z,25.70
2018-09-04T21:42:16.174Z,24.73
2018-09-04T21:44:44.989Z,27.17
2018-09-04T21:47:13.831Z,31.80
2018-09-04T21:49:42.704Z,27.67
2018-09-04T21:52:11.540Z,28.87
2018-09-04T21:54:40.409Z,25.72
2018-09-04T21:57:09.255Z,25.97
2018-09-04T21:59:38.110Z,25.32
2018-09-04T22:02:06.977Z,26.27
2018-09-04T22:04:35.843Z,25.90
2018-09-04T22:07:04.723Z,26.07
2018-09-04T22:09:37.164Z,26.02
2018-09-04T22:12:08.106Z,25.13
2018-09-04T22:14:36.954Z,24.80
2018-09-04T22:17:05.851Z,25.67
2018-09-04T22:19:34.685Z,26.47
2018-09-04T22:22:03.533Z,28.53
2018-09-04T22:24:34.705Z,28.97
2018-09-04T22:27:07.346Z,32.13
2018-09-04T22:29:37.690Z,30.33
2018-09-04T22:32:06.564Z,30.52
2018-09-04T22:34:35.373Z,34.03
2018-09-04T22:37:04.690Z,30.60
2018-09-04T22:39:33.532Z,34.47
2018-09-04T22:42:02.380Z,29.70
2018-09-04T22:44:31.224Z,31.67
2018-09-04T22:47:00.349Z,32.10
2018-09-04T22:49:29.200Z,29.48
2018-09-04T22:52:01.834Z,30.95
2018-09-04T22:54:30.691Z,32.40
2018-09-04T22:56:59.522Z,36.50
2018-09-04T22:59:28.474Z,44.00
2018-09-04T23:01:57.332Z,36.77
2018-09-04T23:04:26.220Z,36.27
2018-09-04T23:06:55.119Z,34.77
2018-09-04T23:09:23.928Z,30.53
2018-09-04T23:11:52.739Z,37.63
2018-09-04T23:14:21.615Z,37.77
2018-09-04T23:16:50.442Z,42.15
2018-09-04T23:19:19.262Z,42.37
2018-09-04T23:21:48.092Z,43.60
2018-09-04T23:24:16.975Z,47.43
2018-09-04T23:26:45.854Z,43.37
2018-09-04T23:29:14.708Z,46.17
2018-09-04T23:31:43.553Z,46.40
2018-09-04T23:34:12.395Z,44.93
2018-09-04T23:36:41.221Z,47.08
2018-09-04T23:39:10.120Z,50.67
2018-09-04T23:41:39.001Z,46.77
2018-09-04T23:44:07.954Z,45.78
2018-09-04T23:46:36.796Z,45.65
2018-09-04T23:49:06.548Z,47.75
2018-09-04T23:51:35.410Z,44.63
2018-09-04T23:54:04.257Z,43.87
2018-09-04T23:56:33.093Z,47.05
2018-09-04T23:59:01.959Z,46.95
